Time;durP1;ratioP1;P1;durP2;ratioP2;P2;SDS_P1;SDS_P2;PMS_P1;PMS_P2;Temp;Humidity;BMP_temperature;BMP_pressure;BME280_temperature;BME280_humidity;BME280_pressure;Samples;Min_cycle;Max_cycle;Signal;HPM_P1;HPM_P2
2023/06/23 00:00:37;;;;;;;90.30;45.40;;;18.70;99.90;;;;;;5057176;28;20406;-80
2023/06/23 00:03:03;;;;;;;88.07;39.60;;;18.80;99.90;;;;;;5057479;28;20442;-81
2023/06/23 00:05:29;;;;;;;90.13;37.03;;;18.70;99.90;;;;;;5055780;28;20439;-80
2023/06/23 00:07:55;;;;;;;87.20;40.30;;;18.60;99.90;;;;;;5057407;28;20819;-80
2023/06/23 00:10:21;;;;;;;87.53;42.40;;;18.60;99.90;;;;;;5055739;28;20460;-80
2023/06/23 00:12:47;;;;;;;83.50;33.97;;;18.60;99.90;;;;;;5057863;28;20164;-80
2023/06/23 00:15:14;;;;;;;88.07;33.10;;;18.60;99.90;;;;;;5056999;28;20168;-81
2023/06/23 00:17:45;;;;;;;84.27;32.77;;;18.60;99.90;;;;;;5056523;28;20193;-81
2023/06/23 00:20:13;;;;;;;84.87;26.77;;;18.60;99.90;;;;;;5057111;28;20391;-81
2023/06/23 00:22:40;;;;;;;83.53;25.90;;;18.70;99.90;;;;;;5057398;28;20894;-80
2023/06/23 00:25:09;;;;;;;85.17;29.80;;;18.60;99.90;;;;;;5056929;28;20508;-80
2023/06/23 00:27:39;;;;;;;79.87;22.30;;;18.60;99.90;;;;;;5056637;28;20907;-80
2023/06/23 00:30:05;;;;;;;77.53;21.77;;;18.60;99.90;;;;;;5055360;28;20407;-80
2023/06/23 00:32:31;;;;;;;79.57;23.03;;;18.60;99.90;;;;;;5056654;28;20411;-81
2023/06/23 00:34:56;;;;;;;78.30;23.70;;;18.60;99.90;;;;;;5055067;28;20779;-81
2023/06/23 00:37:22;;;;;;;77.43;19.87;;;18.70;99.90;;;;;;5057293;28;20607;-81
2023/06/23 00:39:48;;;;;;;79.50;20.77;;;18.70;99.90;;;;;;5056278;28;20165;-81
2023/06/23 00:42:14;;;;;;;76.17;17.80;;;18.60;99.90;;;;;;5056688;28;20548;-80
2023/06/23 00:44:39;;;;;;;78.63;17.13;;;18.60;99.90;;;;;;5056076;28;20455;-81
2023/06/23 00:47:06;;;;;;;78.47;21.10;;;18.60;99.90;;;;;;5059548;28;20188;-80
2023/06/23 00:49:35;;;;;;;79.53;18.43;;;18.60;99.90;;;;;;5059814;28;20258;-80
2023/06/23 00:52:03;;;;;;;76.43;18.10;;;18.50;99.90;;;;;;5057574;28;20415;-81
2023/06/23 00:54:32;;;;;;;80.73;23.77;;;18.50;99.90;;;;;;5059603;28;20399;-80
2023/06/23 00:56:58;;;;;;;76.10;19.87;;;18.40;99.90;;;;;;5057958;28;20427;-80
2023/06/23 00:59:28;;;;;;;83.50;21.83;;;18.40;99.90;;;;;;5059717;28;20898;-80
2023/06/23 01:02:01;;;;;;;85.30;22.47;;;18.40;99.90;;;;;;5058050;28;20446;-80
2023/06/23 01:04:29;;;;;;;81.20;21.20;;;18.40;99.90;;;;;;5060016;28;20794;-80
2023/06/23 01:07:13;;;;;;;82.77;19.90;;;18.40;99.90;;;;;;5059315;28;20462;-80
2023/06/23 01:10:15;;;;;;;80.47;18.87;;;18.40;99.90;;;;;;5058604;28;20402;-80
2023/06/23 01:12:50;;;;;;;86.17;19.07;;;18.50;99.90;;;;;;5060180;28;20470;-80
2023/06/23 01:15:33;;;;;;;79.57;20.67;;;18.30;99.90;;;;;;5059475;28;20405;-80
2023/06/23 01:18:01;;;;;;;78.77;18.00;;;18.40;99.90;;;;;;5059501;28;20557;-80
2023/06/23 01:20:33;;;;;;;77.07;17.37;;;18.40;99.90;;;;;;5059786;28;20484;-80
2023/06/23 01:23:11;;;;;;;75.67;20.87;;;18.30;99.90;;;;;;5059330;28;20410;-80
2023/06/23 01:25:53;;;;;;;75.53;19.13;;;18.20;99.90;;;;;;5059147;28;20384;-81
2023/06/23 01:28:41;;;;;;;79.57;19.20;;;18.20;99.90;;;;;;5059650;28;20422;-80
2023/06/23 01:31:13;;;;;;;78.20;16.57;;;18.20;99.90;;;;;;5057943;28;20403;-81
2023/06/23 01:33:44;;;;;;;82.27;18.40;;;18.10;99.90;;;;;;5059547;28;20387;-80
2023/06/23 01:36:14;;;;;;;78.77;15.20;;;18.10;99.90;;;;;;5057562;28;20407;-81
2023/06/23 01:38:48;;;;;;;75.00;14.90;;;18.10;99.90;;;;;;5059247;28;20427;-80
2023/06/23 01:41:19;;;;;;;74.37;13.27;;;18.10;99.90;;;;;;5058717;28;20394;-80
2023/06/23 01:43:48;;;;;;;73.50;12.87;;;18.10;99.90;;;;;;5058906;28;20431;-80
2023/06/23 01:46:25;;;;;;;78.20;14.90;;;18.10;99.90;;;;;;5059308;28;20391;-80
2023/06/23 01:48:57;;;;;;;76.60;13.97;;;18.00;99.90;;;;;;5059107;28;20449;-80
2023/06/23 01:51:26;;;;;;;75.37;12.20;;;18.00;99.90;;;;;;5058574;28;20882;-80
2023/06/23 01:53:53;;;;;;;73.40;11.67;;;17.90;99.90;;;;;;5059183;28;20976;-80
2023/06/23 01:56:21;;;;;;;71.40;12.27;;;17.90;99.90;;;;;;5058077;28;20423;-80
2023/06/23 01:58:49;;;;;;;74.23;13.50;;;17.80;99.90;;;;;;5057516;28;20792;-80
2023/06/23 02:01:16;;;;;;;75.30;14.60;;;17.80;99.90;;;;;;5059369;28;20430;-80
2023/06/23 02:03:41;;;;;;;77.33;12.03;;;17.80;99.90;;;;;;5059028;28;20443;-80
2023/06/23 02:06:08;;;;;;;72.70;10.50;;;17.80;99.90;;;;;;5057563;28;20981;-80
2023/06/23 02:08:35;;;;;;;70.30;10.20;;;17.90;99.90;;;;;;5058417;28;20453;-80
2023/06/23 02:11:02;;;;;;;72.67;11.77;;;17.80;99.90;;;;;;5059289;28;20399;-80
2023/06/23 02:13:30;;;;;;;70.10;11.23;;;17.80;99.90;;;;;;5059499;28;20404;-80
2023/06/23 02:15:57;;;;;;;72.40;11.57;;;17.80;99.90;;;;;;5058920;28;20431;-80
2023/06/23 02:18:24;;;;;;;70.53;9.80;;;17.80;99.90;;;;;;5059188;28;20447;-80
2023/06/23 02:20:51;;;;;;;73.97;9.70;;;17.80;99.90;;;;;;5058826;28;20399;-80
2023/06/23 02:23:19;;;;;;;76.27;12.27;;;17.80;99.90;;;;;;5058242;28;20906;-80
2023/06/23 02:25:45;;;;;;;71.77;12.70;;;17.80;99.90;;;;;;5057185;28;20830;-80
2023/06/23 02:28:13;;;;;;;74.87;12.30;;;17.80;99.90;;;;;;5058351;28;20415;-79
2023/06/23 02:30:40;;;;;;;72.77;12.33;;;17.80;99.90;;;;;;5058440;28;20403;-80
2023/06/23 02:33:06;;;;;;;70.37;10.63;;;17.70;99.90;;;;;;5058217;28;20487;-80
2023/06/23 02:35:33;;;;;;;72.93;10.90;;;17.70;99.90;;;;;;5058597;28;20430;-80
2023/06/23 02:38:01;;;;;;;74.90;10.70;;;17.70;99.90;;;;;;5057578;28;20968;-80
2023/06/23 02:40:31;;;;;;;72.80;9.67;;;17.70;99.90;;;;;;5056733;28;20419;-80
2023/06/23 02:43:42;;;;;;;76.37;12.20;;;17.80;99.90;;;;;;5058545;28;20417;-80
2023/06/23 02:46:11;;;;;;;77.50;9.60;;;17.70;99.90;;;;;;5024004;28;20848;-80
2023/06/23 02:48:39;;;;;;;73.17;9.90;;;17.80;99.90;;;;;;5056546;28;20426;-80
2023/06/23 02:51:11;;;;;;;73.47;11.30;;;17.80;99.90;;;;;;5057922;28;20414;-80
2023/06/23 02:53:46;;;;;;;76.63;11.93;;;17.80;99.90;;;;;;5057636;28;20376;-80
2023/06/23 02:56:20;;;;;;;73.80;10.37;;;17.80;99.90;;;;;;5057249;28;20379;-80
2023/06/23 02:58:49;;;;;;;82.73;12.23;;;17.90;99.90;;;;;;5056137;28;20442;-80
2023/06/23 03:01:16;;;;;;;71.97;10.93;;;17.80;99.90;;;;;;5057703;28;20430;-80
2023/06/23 03:03:43;;;;;;;74.50;10.83;;;17.80;99.90;;;;;;5057138;28;20447;-80
2023/06/23 03:06:20;;;;;;;72.97;11.50;;;17.90;99.90;;;;;;5056700;28;20391;-80
2023/06/23 03:08:47;;;;;;;73.40;11.70;;;18.00;99.90;;;;;;5056409;28;20442;-80
2023/06/23 03:11:16;;;;;;;76.00;11.60;;;18.00;99.90;;;;;;5056163;28;20934;-80
2023/06/23 03:13:43;;;;;;;72.20;11.03;;;17.90;99.90;;;;;;5057700;28;20492;-80
2023/06/23 03:16:38;;;;;;;75.80;10.70;;;17.90;99.90;;;;;;5058242;28;20396;-80
2023/06/23 03:19:20;;;;;;;78.73;11.50;;;18.00;99.90;;;;;;5054062;28;20415;-80
2023/06/23 03:22:14;;;;;;;74.07;11.50;;;18.00;99.90;;;;;;5057055;28;20383;-80
2023/06/23 03:24:43;;;;;;;77.60;11.13;;;17.90;99.90;;;;;;5051483;28;20799;-80
2023/06/23 03:27:11;;;;;;;72.57;11.67;;;17.80;99.90;;;;;;5057154;28;20419;-80
2023/06/23 03:29:53;;;;;;;73.07;11.67;;;17.90;99.90;;;;;;5056660;28;20399;-80
2023/06/23 03:32:26;;;;;;;76.10;13.47;;;17.90;99.90;;;;;;5056964;28;20893;-80
2023/06/23 03:35:00;;;;;;;75.97;13.57;;;17.80;99.90;;;;;;5055613;28;20411;-80
2023/06/23 03:37:29;;;;;;;74.90;16.43;;;17.80;99.90;;;;;;5055591;28;20814;-80
2023/06/23 03:40:00;;;;;;;75.17;13.53;;;17.80;99.90;;;;;;5056886;28;20403;-80
2023/06/23 03:42:27;;;;;;;77.27;15.03;;;17.80;99.90;;;;;;5056842;28;20382;-80
2023/06/23 03:44:59;;;;;;;76.50;14.20;;;17.80;99.90;;;;;;5056564;28;20499;-80
2023/06/23 03:47:29;;;;;;;77.13;15.07;;;17.80;99.90;;;;;;5055924;28;20452;-80
2023/06/23 03:50:01;;;;;;;78.60;15.73;;;17.80;99.90;;;;;;5059784;28;20465;-80
2023/06/23 03:52:28;;;;;;;77.23;17.87;;;17.80;99.90;;;;;;5062101;28;20390;-80
2023/06/23 03:54:55;;;;;;;75.90;18.87;;;17.70;99.90;;;;;;5061505;28;20403;-80
2023/06/23 03:57:25;;;;;;;79.77;20.43;;;17.80;99.90;;;;;;5062041;28;20423;-79
2023/06/23 03:59:52;;;;;;;78.27;17.63;;;17.80;99.90;;;;;;5063901;28;20468;-80
2023/06/23 04:02:20;;;;;;;81.67;17.70;;;17.90;99.90;;;;;;5062988;28;20403;-80
2023/06/23 04:04:49;;;;;;;78.73;15.77;;;17.90;99.90;;;;;;5060770;28;20458;-80
2023/06/23 04:07:15;;;;;;;77.87;17.27;;;17.90;99.90;;;;;;5130576;23;20486;-84
2023/06/23 04:09:45;;;;;;;80.00;17.10;;;18.00;99.90;;;;;;5057772;28;20472;-83
2023/06/23 04:12:15;;;;;;;82.40;19.20;;;17.90;99.90;;;;;;5056412;28;20395;-84
2023/06/23 04:14:44;;;;;;;79.43;18.70;;;17.90;99.90;;;;;;5038970;28;21000;-83
2023/06/23 04:17:12;;;;;;;83.70;20.07;;;17.90;99.90;;;;;;5056648;28;20830;-82
2023/06/23 04:19:44;;;;;;;88.77;21.80;;;17.90;99.90;;;;;;5057238;28;20392;-84
2023/06/23 04:22:10;;;;;;;78.83;20.83;;;17.80;99.90;;;;;;5056917;28;20403;-84
2023/06/23 04:24:39;;;;;;;81.07;21.90;;;17.80;99.90;;;;;;5040168;28;20493;-84
2023/06/23 04:27:06;;;;;;;81.37;23.33;;;17.80;99.90;;;;;;5038851;28;20427;-84
2023/06/23 04:29:38;;;;;;;91.53;26.90;;;17.70;99.90;;;;;;5039033;28;20770;-84
2023/06/23 04:32:04;;;;;;;87.33;24.07;;;17.70;99.90;;;;;;5057604;28;20391;-84
2023/06/23 04:34:30;;;;;;;82.97;25.47;;;17.70;99.90;;;;;;5057069;28;20430;-84
2023/06/23 04:37:07;;;;;;;83.50;23.33;;;17.80;99.90;;;;;;5057467;28;20895;-84
2023/06/23 04:40:18;;;;;;;81.80;22.47;;;17.90;99.90;;;;;;5057066;28;20422;-84
2023/06/23 04:42:59;;;;;;;83.33;22.13;;;17.90;99.90;;;;;;5016123;28;20415;-84
2023/06/23 04:45:27;;;;;;;83.70;21.77;;;18.00;99.90;;;;;;5037536;28;20485;-83
2023/06/23 04:47:57;;;;;;;84.17;23.83;;;18.00;99.90;;;;;;5056045;28;20419;-83
2023/06/23 04:50:30;;;;;;;83.57;22.33;;;18.10;99.90;;;;;;5038160;28;20763;-83
2023/06/23 04:53:05;;;;;;;80.90;20.57;;;18.20;99.90;;;;;;5040024;28;20414;-84
2023/06/23 04:55:34;;;;;;;83.20;21.67;;;18.20;99.90;;;;;;5056986;28;20387;-84
2023/06/23 04:58:04;;;;;;;87.40;21.43;;;18.20;99.90;;;;;;5056477;28;20458;-85
2023/06/23 05:00:31;;;;;;;83.10;22.60;;;18.30;99.90;;;;;;5038152;28;20414;-84
2023/06/23 05:03:00;;;;;;;87.30;20.23;;;18.30;99.90;;;;;;5038873;28;20494;-85
2023/06/23 05:05:28;;;;;;;90.90;22.20;;;18.30;99.90;;;;;;5038905;28;20439;-84
2023/06/23 05:07:55;;;;;;;84.87;22.20;;;18.20;99.90;;;;;;5038504;28;20462;-83
2023/06/23 05:10:23;;;;;;;89.33;22.43;;;18.30;99.90;;;;;;5038591;28;20403;-84
2023/06/23 05:12:52;;;;;;;81.77;20.77;;;18.30;99.90;;;;;;5038685;28;20403;-85
2023/06/23 05:15:22;;;;;;;85.47;21.20;;;18.40;99.90;;;;;;5056734;28;20774;-84
2023/06/23 05:17:51;;;;;;;85.70;20.93;;;18.60;99.90;;;;;;5039092;28;20837;-83
2023/06/23 05:20:20;;;;;;;87.67;20.97;;;18.60;99.90;;;;;;5038488;28;20407;-84
2023/06/23 05:22:50;;;;;;;91.13;19.93;;;18.70;99.90;;;;;;5056513;28;20410;-84
2023/06/23 05:25:18;;;;;;;86.30;20.97;;;18.80;99.90;;;;;;5056667;28;20472;-84
2023/06/23 05:27:50;;;;;;;85.27;20.50;;;18.90;99.90;;;;;;5038029;28;20420;-84
2023/06/23 05:30:18;;;;;;;83.00;20.10;;;19.00;99.90;;;;;;5056558;28;20372;-84
2023/06/23 05:32:47;;;;;;;83.77;20.43;;;19.00;99.90;;;;;;5041272;28;20910;-84
2023/06/23 05:35:14;;;;;;;82.13;19.07;;;19.00;99.90;;;;;;5060774;28;20404;-84
2023/06/23 05:37:43;;;;;;;83.63;19.70;;;18.90;99.90;;;;;;5059434;28;20515;-83
2023/06/23 05:40:12;;;;;;;82.33;18.80;;;18.80;99.90;;;;;;5039968;28;20411;-83
2023/06/23 05:42:39;;;;;;;89.83;18.67;;;18.90;99.90;;;;;;5039573;28;20403;-83
2023/06/23 05:45:05;;;;;;;84.00;18.67;;;18.90;99.90;;;;;;5057996;28;20450;-83
2023/06/23 05:47:38;;;;;;;83.10;19.70;;;18.90;99.90;;;;;;5058068;28;20421;-83
2023/06/23 05:50:12;;;;;;;87.30;19.63;;;18.80;99.90;;;;;;5043648;28;20400;-82
2023/06/23 05:52:40;;;;;;;86.23;19.83;;;18.60;99.90;;;;;;5044317;28;20391;-81
2023/06/23 05:55:10;;;;;;;80.67;19.07;;;18.50;99.90;;;;;;5062842;28;20407;-80
2023/06/23 05:57:38;;;;;;;85.70;19.13;;;18.50;99.90;;;;;;5063145;28;20491;-81
2023/06/23 06:00:09;;;;;;;82.10;19.23;;;18.60;99.90;;;;;;5044044;28;20418;-80
2023/06/23 06:02:39;;;;;;;85.67;21.80;;;18.40;99.90;;;;;;5044337;28;20499;-80
2023/06/23 06:05:08;;;;;;;86.93;21.13;;;18.40;99.90;;;;;;5043482;28;20451;-81
2023/06/23 06:07:39;;;;;;;91.40;25.33;;;18.40;99.90;;;;;;5043722;28;20473;-82
2023/06/23 06:10:08;;;;;;;89.33;20.73;;;18.40;99.90;;;;;;5044436;28;20408;-81
2023/06/23 06:12:35;;;;;;;91.93;20.93;;;18.60;99.90;;;;;;5043485;28;20434;-81
2023/06/23 06:15:05;;;;;;;85.97;19.27;;;18.70;99.90;;;;;;5062937;28;20450;-80
2023/06/23 06:17:33;;;;;;;82.23;19.77;;;18.70;99.90;;;;;;5044320;28;20946;-80
2023/06/23 06:20:02;;;;;;;87.37;21.83;;;18.70;99.90;;;;;;5061007;28;20439;-80
2023/06/23 06:22:32;;;;;;;87.50;20.30;;;18.80;99.90;;;;;;5060820;28;20850;-80
2023/06/23 06:24:59;;;;;;;92.03;20.27;;;18.70;99.90;;;;;;5043225;28;20469;-82
2023/06/23 06:27:27;;;;;;;78.97;17.50;;;18.70;99.90;;;;;;5044053;28;20423;-81
2023/06/23 06:29:56;;;;;;;80.30;16.67;;;18.70;99.90;;;;;;5043766;28;20403;-81
2023/06/23 06:32:23;;;;;;;87.00;21.10;;;18.70;99.90;;;;;;5061221;28;20396;-82
2023/06/23 06:34:50;;;;;;;90.33;19.77;;;18.70;99.90;;;;;;5060988;28;20457;-80
2023/06/23 06:37:18;;;;;;;87.00;18.60;;;18.80;99.90;;;;;;5062412;28;20424;-81
2023/06/23 06:39:45;;;;;;;86.23;19.77;;;18.80;99.90;;;;;;5061130;28;20407;-80
2023/06/23 06:42:11;;;;;;;85.57;20.93;;;18.80;99.90;;;;;;5062030;28;20407;-81
2023/06/23 06:44:38;;;;;;;88.90;20.60;;;18.90;99.90;;;;;;5060687;28;20896;-81
2023/06/23 06:47:06;;;;;;;81.00;19.40;;;19.00;99.90;;;;;;5043075;28;20431;-81
2023/06/23 06:49:33;;;;;;;87.20;22.73;;;19.10;99.90;;;;;;5060086;28;20461;-80
2023/06/23 06:52:01;;;;;;;89.23;22.30;;;19.20;99.90;;;;;;5060307;28;20399;-81
2023/06/23 06:54:27;;;;;;;88.53;22.80;;;19.20;99.90;;;;;;5059648;28;20400;-82
2023/06/23 06:56:55;;;;;;;84.87;23.53;;;19.20;99.90;;;;;;5059157;28;20399;-80
2023/06/23 06:59:21;;;;;;;86.60;21.93;;;19.10;99.90;;;;;;5060822;28;20169;-81
2023/06/23 07:01:47;;;;;;;86.00;21.50;;;19.10;99.90;;;;;;5059748;28;20481;-81
2023/06/23 07:04:13;;;;;;;87.90;22.10;;;19.20;99.90;;;;;;5041585;28;20527;-81
2023/06/23 07:06:40;;;;;;;85.77;22.67;;;19.20;99.90;;;;;;5059927;28;20487;-81
2023/06/23 07:09:06;;;;;;;85.83;21.50;;;19.40;99.90;;;;;;5059888;28;20420;-81
2023/06/23 07:11:32;;;;;;;88.80;22.40;;;19.60;99.90;;;;;;5042762;28;20442;-82
2023/06/23 07:13:59;;;;;;;84.87;21.33;;;19.70;99.90;;;;;;5060097;28;20399;-81
2023/06/23 07:16:30;;;;;;;83.03;20.50;;;20.00;99.90;;;;;;5061247;28;20397;-81
2023/06/23 07:18:56;;;;;;;83.77;21.00;;;20.20;99.90;;;;;;5059701;28;20423;-81
2023/06/23 07:21:22;;;;;;;90.00;21.73;;;20.40;99.90;;;;;;5061394;28;20399;-81
2023/06/23 07:23:47;;;;;;;83.07;18.83;;;20.60;99.90;;;;;;5060704;28;20889;-82
2023/06/23 07:26:13;;;;;;;82.70;19.40;;;20.70;99.90;;;;;;5060715;28;20188;-82
2023/06/23 07:28:39;;;;;;;87.47;20.80;;;20.70;99.90;;;;;;5042469;28;20209;-82
2023/06/23 07:31:05;;;;;;;87.57;23.00;;;20.80;99.90;;;;;;5042442;28;20165;-81
2023/06/23 07:33:30;;;;;;;83.90;22.03;;;20.90;99.90;;;;;;5060154;28;20199;-80
2023/06/23 07:35:56;;;;;;;88.33;22.60;;;21.10;99.90;;;;;;5060317;28;20159;-82
2023/06/23 07:38:22;;;;;;;86.70;25.60;;;21.20;99.90;;;;;;5060623;28;20184;-81
2023/06/23 07:40:47;;;;;;;89.80;28.30;;;21.10;99.90;;;;;;5059304;28;20170;-81
2023/06/23 07:43:13;;;;;;;86.80;26.07;;;21.10;99.90;;;;;;5043483;28;20637;-81
2023/06/23 07:45:41;;;;;;;83.60;26.97;;;21.10;99.90;;;;;;5060412;28;20199;-81
2023/06/23 07:48:07;;;;;;;84.70;27.03;;;21.20;99.90;;;;;;5060350;28;20237;-80
2023/06/23 07:50:33;;;;;;;85.17;26.70;;;21.20;99.90;;;;;;5061693;28;20399;-82
2023/06/23 07:52:58;;;;;;;83.07;25.47;;;21.30;99.90;;;;;;5061799;28;20157;-81
2023/06/23 07:55:24;;;;;;;89.10;23.40;;;21.30;99.90;;;;;;5059773;28;20513;-81
2023/06/23 07:57:49;;;;;;;85.33;25.20;;;21.50;99.90;;;;;;5061204;28;20199;-82
2023/06/23 08:00:16;;;;;;;83.50;24.00;;;21.40;99.90;;;;;;5042745;28;20169;-82
2023/06/23 08:02:42;;;;;;;88.83;25.60;;;21.40;99.90;;;;;;5060062;28;20177;-81
2023/06/23 08:05:08;;;;;;;81.27;24.00;;;21.30;99.90;;;;;;5058964;28;20443;-81
2023/06/23 08:07:34;;;;;;;82.37;25.63;;;21.30;99.90;;;;;;5059736;28;20195;-81
2023/06/23 08:10:00;;;;;;;83.77;24.80;;;21.30;99.90;;;;;;5058948;28;20744;-81
2023/06/23 08:12:25;;;;;;;83.47;26.87;;;21.40;99.90;;;;;;5060491;28;20290;-81
2023/06/23 08:14:51;;;;;;;85.63;22.03;;;21.40;99.90;;;;;;5042552;28;20652;-82
2023/06/23 08:17:17;;;;;;;79.73;22.40;;;21.60;99.90;;;;;;5041596;28;20563;-81
2023/06/23 08:19:43;;;;;;;80.13;20.23;;;21.70;99.90;;;;;;5040645;28;20168;-80
2023/06/23 08:22:09;;;;;;;79.60;21.17;;;21.80;99.90;;;;;;5057309;28;20217;-81
2023/06/23 08:24:35;;;;;;;82.47;20.77;;;21.80;99.90;;;;;;5038880;28;20514;-81
2023/06/23 08:27:01;;;;;;;80.27;18.03;;;21.80;99.90;;;;;;5058537;28;20512;-81
2023/06/23 08:29:26;;;;;;;78.40;18.17;;;21.90;99.90;;;;;;5041936;28;20161;-81
2023/06/23 08:31:52;;;;;;;82.13;19.37;;;21.90;99.90;;;;;;5057996;28;20167;-81
2023/06/23 08:34:18;;;;;;;82.40;19.97;;;22.10;99.90;;;;;;5039941;28;20179;-81
2023/06/23 08:36:44;;;;;;;79.87;18.47;;;22.10;99.90;;;;;;5057704;28;20894;-80
2023/06/23 08:39:10;;;;;;;77.10;15.10;;;22.20;99.90;;;;;;5038423;28;20414;-81
2023/06/23 08:41:39;;;;;;;78.63;16.47;;;22.10;99.90;;;;;;5057557;28;20407;-80
2023/06/23 08:44:06;;;;;;;77.83;13.90;;;22.10;99.90;;;;;;5039169;28;20200;-80
2023/06/23 08:46:34;;;;;;;75.17;12.40;;;22.20;99.90;;;;;;5058242;28;20406;-80
2023/06/23 08:49:05;;;;;;;72.30;9.30;;;22.40;99.90;;;;;;5039202;28;20826;-81
2023/06/23 08:51:32;;;;;;;75.87;12.10;;;22.60;99.90;;;;;;5056074;28;20383;-81
2023/06/23 08:53:58;;;;;;;76.10;11.93;;;22.70;99.90;;;;;;5057286;28;20399;-80
2023/06/23 08:56:25;;;;;;;75.07;12.07;;;22.90;99.90;;;;;;5057042;28;20494;-81
2023/06/23 08:58:51;;;;;;;79.50;12.27;;;22.90;99.90;;;;;;5039465;28;20207;-81
2023/06/23 09:01:16;;;;;;;75.77;11.40;;;22.80;95.40;;;;;;5056479;28;21028;-81
2023/06/23 09:03:42;;;;;;;78.07;12.40;;;22.90;89.00;;;;;;5056947;28;20234;-81
2023/06/23 09:06:09;;;;;;;73.73;11.40;;;23.00;69.90;;;;;;5057790;28;20164;-80
2023/06/23 09:08:35;;;;;;;76.50;10.63;;;22.90;75.50;;;;;;5060542;28;20635;-81
2023/06/23 09:11:01;;;;;;;77.40;11.80;;;22.90;67.30;;;;;;5041222;28;20408;-81
2023/06/23 09:13:30;;;;;;;74.80;11.53;;;22.70;50.50;;;;;;5041555;28;20632;-79
2023/06/23 09:15:56;;;;;;;75.37;11.67;;;22.90;49.30;;;;;;5058421;28;20165;-80
2023/06/23 09:18:22;;;;;;;74.90;10.57;;;23.00;43.10;;;;;;5058969;28;20434;-82
2023/06/23 09:20:50;;;;;;;75.40;10.80;;;23.10;30.60;;;;;;5041085;28;20873;-80
2023/06/23 09:23:20;;;;;;;74.47;10.97;;;23.40;47.70;;;;;;5044127;28;20411;-81
2023/06/23 09:25:50;;;;;;;71.50;10.20;;;23.40;25.00;;;;;;5061515;28;20461;-80
2023/06/23 09:28:36;;;;;;;77.77;8.70;;;23.50;18.00;;;;;;5041085;28;20427;-81
2023/06/23 09:31:15;;;;;;;73.53;9.37;;;23.50;19.30;;;;;;5059264;28;20387;-82
2023/06/23 09:33:52;;;;;;;71.40;9.03;;;23.60;4.10;;;;;;5041681;28;20910;-81
2023/06/23 09:36:19;;;;;;;75.77;12.57;;;23.70;12.50;;;;;;5041275;28;20441;-81
2023/06/23 09:38:45;;;;;;;71.37;10.30;;;23.70;1.00;;;;;;5040827;28;20473;-80
2023/06/23 09:41:16;;;;;;;72.93;13.17;;;23.70;4.10;;;;;;5058532;28;20396;-81
2023/06/23 09:43:44;;;;;;;73.80;11.20;;;23.90;1.00;;;;;;5058360;28;20403;-81
2023/06/23 09:46:18;;;;;;;70.90;9.80;;;24.10;3.40;;;;;;5058197;28;20400;-80
2023/06/23 09:48:46;;;;;;;76.10;18.40;;;24.20;1.00;;;;;;5058697;28;20426;-80
2023/06/23 09:51:12;;;;;;;74.40;17.50;;;23.90;1.00;;;;;;5057770;28;20428;-81
2023/06/23 09:53:42;;;;;;;72.97;15.23;;;23.60;1.00;;;;;;5058400;28;20404;-80
2023/06/23 09:56:17;;;;;;;72.43;14.47;;;23.60;1.00;;;;;;5058497;28;20503;-81
2023/06/23 09:58:44;;;;;;;74.10;15.83;;;23.80;1.00;;;;;;5057456;28;20422;-80
2023/06/23 10:01:12;;;;;;;74.30;15.87;;;23.90;1.00;;;;;;5039316;28;20442;-81
2023/06/23 10:03:52;;;;;;;74.60;16.10;;;23.80;1.00;;;;;;5058252;28;20399;-80
2023/06/23 10:06:34;;;;;;;74.80;19.10;;;23.90;1.00;;;;;;5039399;28;20443;-81
2023/06/23 10:09:05;;;;;;;73.70;19.60;;;23.90;1.00;;;;;;5149234;23;20486;-80
2023/06/23 10:11:37;;;;;;;72.37;12.40;;;24.10;1.00;;;;;;5079203;28;20380;-80
2023/06/23 10:14:05;;;;;;;75.50;9.30;;;24.10;1.00;;;;;;5079663;28;20407;-80
2023/06/23 10:16:33;;;;;;;74.47;14.33;;;24.10;1.00;;;;;;5060892;28;20418;-80
2023/06/23 10:18:59;;;;;;;75.67;13.93;;;24.00;1.00;;;;;;5039923;28;20534;-80
2023/06/23 10:21:25;;;;;;;77.10;13.43;;;24.00;1.00;;;;;;5059321;28;20434;-80
2023/06/23 10:23:53;;;;;;;74.10;9.27;;;24.20;1.00;;;;;;5058441;28;20194;-80
2023/06/23 10:26:20;;;;;;;72.87;10.77;;;24.40;1.00;;;;;;5059116;28;20402;-80
2023/06/23 10:28:48;;;;;;;70.70;10.23;;;24.70;1.00;;;;;;5059082;28;20431;-80
2023/06/23 10:31:14;;;;;;;70.40;7.50;;;25.00;1.00;;;;;;5059065;28;20411;-80
2023/06/23 10:33:45;;;;;;;71.17;7.63;;;25.20;1.00;;;;;;5058672;28;20767;-80
2023/06/23 10:36:17;;;;;;;69.20;6.30;;;25.50;1.00;;;;;;5040602;28;20444;-80
2023/06/23 10:38:46;;;;;;;72.50;7.90;;;25.90;1.00;;;;;;5058290;28;20461;-79
2023/06/23 10:41:13;;;;;;;75.27;9.10;;;26.20;1.00;;;;;;5058356;28;20420;-80
2023/06/23 10:43:41;;;;;;;71.43;7.60;;;26.30;1.00;;;;;;5058484;28;20402;-80
2023/06/23 10:46:07;;;;;;;71.90;7.80;;;26.20;1.00;;;;;;5058049;28;20887;-80
2023/06/23 10:48:34;;;;;;;75.97;9.03;;;26.10;1.00;;;;;;5058748;28;20906;-80
2023/06/23 10:51:01;;;;;;;71.27;7.73;;;25.90;1.00;;;;;;5058447;28;20398;-80
2023/06/23 10:53:32;;;;;;;71.40;7.97;;;26.20;1.00;;;;;;5057779;28;20413;-80
2023/06/23 10:56:06;;;;;;;73.43;6.50;;;26.30;1.00;;;;;;5040820;28;20411;-80
2023/06/23 10:58:48;;;;;;;70.90;6.80;;;26.10;1.00;;;;;;5058611;28;20425;-80
2023/06/23 11:01:14;;;;;;;69.97;6.80;;;26.20;1.00;;;;;;5039499;28;20839;-80
2023/06/23 11:03:39;;;;;;;72.03;7.60;;;26.20;1.00;;;;;;5039809;28;20442;-80
2023/06/23 11:06:10;;;;;;;74.60;7.90;;;26.30;1.00;;;;;;5058299;28;20286;-80
2023/06/23 11:08:40;;;;;;;71.00;6.57;;;26.30;1.00;;;;;;5057913;28;20264;-80
2023/06/23 11:11:09;;;;;;;70.60;6.50;;;26.20;1.00;;;;;;5057061;28;20407;-80
2023/06/23 11:13:44;;;;;;;70.60;6.47;;;26.30;1.00;;;;;;5038413;28;21078;-80
2023/06/23 11:16:38;;;;;;;69.67;5.93;;;26.40;1.00;;;;;;5038911;28;20473;-80
2023/06/23 11:19:04;;;;;;;69.67;6.50;;;26.50;1.00;;;;;;5057613;28;20376;-80
2023/06/23 11:21:39;;;;;;;72.20;7.67;;;26.70;1.00;;;;;;5038826;28;20415;-80
2023/06/23 11:24:11;;;;;;;72.37;6.60;;;26.90;1.00;;;;;;5057096;28;20444;-80
2023/06/23 11:26:41;;;;;;;73.40;6.90;;;27.10;1.00;;;;;;5056655;28;20406;-80
2023/06/23 11:29:12;;;;;;;71.23;5.70;;;27.30;1.00;;;;;;5057758;28;20380;-80
2023/06/23 11:32:12;;;;;;;71.57;6.37;;;27.60;1.00;;;;;;5056979;28;20467;-80
2023/06/23 11:35:01;;;;;;;71.83;6.47;;;27.50;1.00;;;;;;5056606;28;20406;-79
2023/06/23 11:37:38;;;;;;;70.50;6.20;;;27.50;1.00;;;;;;5039842;28;20457;-80
2023/06/23 11:40:08;;;;;;;70.87;5.00;;;26.70;1.00;;;;;;5040317;28;20418;-80
2023/06/23 11:42:35;;;;;;;70.97;5.90;;;26.10;1.00;;;;;;5039721;28;20427;-80
2023/06/23 11:45:01;;;;;;;69.97;5.37;;;25.70;1.00;;;;;;5039861;28;20454;-80
2023/06/23 11:47:27;;;;;;;70.20;5.03;;;25.70;1.00;;;;;;5056926;28;20503;-80
2023/06/23 11:49:54;;;;;;;70.30;5.00;;;26.20;1.00;;;;;;5056645;28;20164;-80
2023/06/23 11:52:20;;;;;;;69.00;4.53;;;26.70;1.00;;;;;;5038999;28;20779;-80
2023/06/23 11:54:48;;;;;;;70.83;4.97;;;26.90;1.00;;;;;;5056894;28;20403;-80
2023/06/23 11:57:18;;;;;;;69.97;5.10;;;26.70;1.00;;;;;;5056636;28;20433;-80
2023/06/23 11:59:51;;;;;;;70.00;5.17;;;27.00;1.00;;;;;;5056434;28;20478;-80
2023/06/23 12:02:16;;;;;;;69.20;4.70;;;27.40;1.00;;;;;;5056112;28;20431;-80
2023/06/23 12:04:42;;;;;;;69.57;4.43;;;27.40;1.00;;;;;;5055635;28;20470;-80
2023/06/23 12:07:19;;;;;;;70.37;4.57;;;27.20;1.00;;;;;;5056088;28;20218;-79
2023/06/23 12:09:51;;;;;;;69.00;4.20;;;26.70;1.00;;;;;;5055877;28;20238;-80
2023/06/23 12:12:17;;;;;;;75.67;4.40;;;26.80;1.00;;;;;;5056288;28;20438;-80
2023/06/23 12:14:43;;;;;;;69.80;5.03;;;27.10;1.00;;;;;;5038131;28;20455;-80
2023/06/23 12:17:12;;;;;;;69.27;5.10;;;27.50;1.00;;;;;;5055518;28;20188;-80
2023/06/23 12:19:39;;;;;;;70.23;4.70;;;27.80;1.00;;;;;;5055956;28;20411;-80
2023/06/23 12:22:15;;;;;;;69.23;5.20;;;27.80;1.00;;;;;;5056621;28;20411;-80
2023/06/23 12:24:41;;;;;;;69.40;5.67;;;28.00;1.00;;;;;;5038429;28;21039;-79
2023/06/23 12:27:08;;;;;;;70.50;5.77;;;27.60;1.00;;;;;;5056375;28;20423;-80
2023/06/23 12:29:34;;;;;;;70.97;5.20;;;27.40;1.00;;;;;;5038585;28;20175;-80
2023/06/23 12:32:02;;;;;;;69.93;6.13;;;27.60;1.00;;;;;;5055519;28;20766;-80
2023/06/23 12:34:36;;;;;;;70.83;4.70;;;27.50;1.00;;;;;;5055933;28;20175;-79
2023/06/23 12:37:12;;;;;;;69.70;5.73;;;27.10;1.00;;;;;;5056010;28;20459;-79
2023/06/23 12:39:53;;;;;;;69.77;5.70;;;26.80;1.00;;;;;;5056311;28;20431;-80
2023/06/23 12:42:19;;;;;;;69.53;5.97;;;26.70;1.00;;;;;;5057999;28;20395;-80